Time;durP1;ratioP1;P1;durP2;ratioP2;P2;SDS_P1;SDS_P2;PMS_P1;PMS_P2;Temp;Humidity;BMP_temperature;BMP_pressure;BME280_temperature;BME280_humidity;BME280_pressure;Samples;Min_cycle;Max_cycle;Signal;HPM_P1;HPM_P2
2023/07/26 00:00:14;;;;;;;5.93;5.45;;;;;;;15.87;67.17;101022.56;5093936;28;20015;-68
2023/07/26 00:02:39;;;;;;;7.30;4.88;;;;;;;15.88;67.25;101024.25;5093880;28;20016;-68
2023/07/26 00:05:08;;;;;;;7.28;5.40;;;;;;;15.82;67.35;101022.94;5111478;28;20023;-68
2023/07/26 00:07:33;;;;;;;5.80;5.30;;;;;;;15.97;67.74;101022.66;5112092;28;20019;-68
2023/07/26 00:09:59;;;;;;;5.95;5.40;;;;;;;15.78;67.64;101016.13;5111569;28;20030;-68
2023/07/26 00:12:26;;;;;;;7.20;5.43;;;;;;;15.88;68.42;101016.22;5111636;28;20022;-68
2023/07/26 00:14:52;;;;;;;6.70;5.35;;;;;;;15.86;67.34;101010.16;5111070;28;20355;-68
2023/07/26 00:17:18;;;;;;;7.97;5.68;;;;;;;15.80;68.27;101011.50;5092719;28;20026;-68
2023/07/26 00:19:45;;;;;;;6.63;5.90;;;;;;;15.72;68.30;101019.31;5095730;28;20038;-68
2023/07/26 00:22:11;;;;;;;6.72;6.05;;;;;;;15.70;68.59;101007.88;5096830;28;20019;-68
2023/07/26 00:24:37;;;;;;;6.25;5.75;;;;;;;15.64;68.76;101019.91;5096710;28;20927;-68
2023/07/26 00:27:02;;;;;;;7.47;6.25;;;;;;;15.71;68.39;101017.63;5115729;28;20065;-68
2023/07/26 00:29:28;;;;;;;6.50;5.85;;;;;;;15.55;68.87;101001.91;5115822;28;20517;-68
2023/07/26 00:31:53;;;;;;;6.85;6.22;;;;;;;15.65;68.73;101005.53;5115738;28;20043;-69
2023/07/26 00:34:19;;;;;;;10.15;6.47;;;;;;;15.69;68.80;101016.91;5115477;28;20015;-68
2023/07/26 00:36:44;;;;;;;7.05;6.30;;;;;;;15.44;69.74;100999.22;5115993;28;20039;-68
2023/07/26 00:39:10;;;;;;;6.70;6.10;;;;;;;15.54;68.48;100997.53;5115216;28;20106;-68
2023/07/26 00:41:35;;;;;;;9.75;6.40;;;;;;;15.51;69.16;101010.34;5097105;28;20031;-68
2023/07/26 00:44:01;;;;;;;7.25;6.20;;;;;;;15.58;68.70;101011.53;5114938;28;20509;-68
2023/07/26 00:46:27;;;;;;;6.35;5.85;;;;;;;15.55;69.38;101006.41;5097344;28;20110;-68
2023/07/26 00:48:53;;;;;;;6.25;5.75;;;;;;;15.53;69.97;101008.34;5115109;28;20030;-68
2023/07/26 00:51:22;;;;;;;10.63;5.95;;;;;;;15.51;70.59;101005.81;5097211;28;20038;-68
2023/07/26 00:53:47;;;;;;;7.35;6.15;;;;;;;15.56;69.60;101008.09;5114655;28;20031;-68
2023/07/26 00:56:15;;;;;;;9.20;6.25;;;;;;;15.47;70.04;101009.72;5115175;28;20080;-68
2023/07/26 00:58:41;;;;;;;6.80;6.18;;;;;;;15.46;70.01;100991.94;5096792;28;20485;-68
2023/07/26 01:01:06;;;;;;;7.00;6.30;;;;;;;15.56;70.50;101003.63;5115293;28;20024;-68
2023/07/26 01:03:31;;;;;;;6.93;6.30;;;;;;;15.49;71.09;101002.41;5096611;28;20564;-68
2023/07/26 01:06:15;;;;;;;8.55;5.90;;;;;;;15.52;70.84;101006.66;5114527;28;20042;-68
2023/07/26 01:09:18;;;;;;;10.95;7.07;;;;;;;15.60;70.41;101006.91;5096300;28;20035;-68
2023/07/26 01:11:50;;;;;;;7.07;6.47;;;;;;;15.26;72.60;101019.47;5115159;28;20481;-68
2023/07/26 01:14:21;;;;;;;7.40;6.80;;;;;;;15.24;71.81;101014.25;5096376;28;20027;-68
2023/07/26 01:16:48;;;;;;;7.80;7.05;;;;;;;15.25;72.39;101015.09;5115180;28;20034;-68
2023/07/26 01:19:13;;;;;;;9.18;7.05;;;;;;;15.13;73.04;101017.78;5114861;28;20132;-68
2023/07/26 01:21:38;;;;;;;8.65;7.18;;;;;;;15.18;72.35;101014.75;5096671;28;20490;-68
2023/07/26 01:24:04;;;;;;;11.10;6.95;;;;;;;15.22;72.38;100998.28;5095465;28;20035;-68
2023/07/26 01:26:32;;;;;;;7.57;6.88;;;;;;;15.12;72.81;101028.63;5114363;28;20378;-68
2023/07/26 01:28:57;;;;;;;7.75;6.95;;;;;;;15.07;72.81;101017.44;5096313;28;20038;-68
2023/07/26 01:31:24;;;;;;;6.53;6.03;;;;;;;14.95;73.60;101019.25;5114687;28;20024;-68
2023/07/26 01:33:52;;;;;;;10.10;7.05;;;;;;;15.06;73.19;101016.59;5113970;28;20043;-68
2023/07/26 01:36:26;;;;;;;7.85;7.15;;;;;;;15.01;73.40;101017.91;5096443;28;20482;-68
2023/07/26 01:38:52;;;;;;;7.43;6.72;;;;;;;14.96;73.54;101012.91;5095672;28;20034;-68
2023/07/26 01:41:19;;;;;;;7.43;6.80;;;;;;;14.91;74.03;101018.66;5114047;28;20501;-68
2023/07/26 01:43:44;;;;;;;7.40;6.80;;;;;;;14.80;74.36;101012.44;5113833;28;20504;-68
2023/07/26 01:46:13;;;;;;;7.78;7.05;;;;;;;14.74;74.05;101008.41;5114240;28;20039;-68
2023/07/26 01:48:39;;;;;;;12.70;7.32;;;;;;;14.79;74.69;101016.06;5114246;28;20027;-68
2023/07/26 01:51:08;;;;;;;7.20;6.68;;;;;;;14.81;74.29;101014.13;5114075;28;20046;-68
2023/07/26 01:53:34;;;;;;;6.73;5.83;;;;;;;14.87;75.05;101002.94;5110599;28;20024;-68
2023/07/26 01:56:00;;;;;;;7.35;6.75;;;;;;;14.83;74.30;101014.88;5112935;28;20285;-68
2023/07/26 01:58:26;;;;;;;6.72;6.15;;;;;;;14.83;74.68;101013.03;5095732;28;20026;-68
2023/07/26 02:00:54;;;;;;;10.88;7.03;;;;;;;14.73;74.57;101010.19;5095076;28;20027;-68
2023/07/26 02:03:20;;;;;;;7.95;6.35;;;;;;;14.74;75.01;101006.56;5079368;28;20090;-68
2023/07/26 02:05:46;;;;;;;7.65;6.88;;;;;;;14.64;74.96;101002.88;5095990;28;20110;-68
2023/07/26 02:08:15;;;;;;;7.35;6.68;;;;;;;14.64;74.82;101008.25;5113490;28;20023;-68
2023/07/26 02:10:42;;;;;;;7.55;6.40;;;;;;;14.75;74.56;101002.06;5113611;28;20032;-68
2023/07/26 02:13:08;;;;;;;6.88;6.32;;;;;;;14.63;74.77;101008.38;5113760;28;20034;-69
2023/07/26 02:15:34;;;;;;;6.97;6.47;;;;;;;14.59;74.65;101006.88;5095030;28;20027;-69
2023/07/26 02:17:59;;;;;;;6.78;6.07;;;;;;;14.67;74.16;101001.81;5112737;28;20019;-68
2023/07/26 02:20:25;;;;;;;6.80;6.28;;;;;;;14.68;74.06;100999.03;5112391;28;20120;-68
2023/07/26 02:22:51;;;;;;;6.38;5.78;;;;;;;14.62;74.90;100998.63;5112489;28;20068;-68
2023/07/26 02:25:18;;;;;;;6.47;5.95;;;;;;;14.61;74.47;100992.41;5111871;28;20031;-68
2023/07/26 02:27:44;;;;;;;6.55;5.95;;;;;;;14.50;75.00;101011.09;5094517;28;20394;-68
2023/07/26 02:30:10;;;;;;;6.47;6.05;;;;;;;14.59;74.98;101010.44;5112024;28;20016;-68
2023/07/26 02:32:35;;;;;;;6.35;5.85;;;;;;;14.52;75.10;101003.84;5112113;28;20031;-68
2023/07/26 02:35:00;;;;;;;6.03;5.55;;;;;;;14.55;75.29;101011.63;5094214;28;20505;-68
2023/07/26 02:37:26;;;;;;;6.57;6.07;;;;;;;14.59;74.97;101006.88;5094308;28;20042;-69
2023/07/26 02:39:51;;;;;;;6.40;6.00;;;;;;;14.57;75.07;101008.84;5109764;28;20023;-68
2023/07/26 02:42:19;;;;;;;7.03;5.32;;;;;;;14.60;75.18;100997.91;5111151;28;20030;-69
2023/07/26 02:44:47;;;;;;;6.15;5.65;;;;;;;14.47;75.96;101004.19;5076806;28;20383;-68
2023/07/26 02:47:13;;;;;;;6.10;5.60;;;;;;;14.55;75.00;100998.25;5113500;28;20386;-68
2023/07/26 02:49:42;;;;;;;5.97;5.47;;;;;;;14.55;75.40;101000.94;5111703;28;20027;-69
2023/07/26 02:52:07;;;;;;;5.17;4.50;;;;;;;14.53;75.69;101009.09;5110715;28;20036;-68
2023/07/26 02:54:32;;;;;;;6.38;5.85;;;;;;;14.51;75.18;101020.84;5093555;28;20036;-68
2023/07/26 02:56:58;;;;;;;5.53;5.10;;;;;;;14.32;75.49;101005.34;5112219;28;20039;-68
2023/07/26 02:59:23;;;;;;;6.40;5.80;;;;;;;14.41;78.39;101025.19;5111935;28;20027;-68
2023/07/26 03:01:49;;;;;;;6.65;6.05;;;;;;;14.34;80.87;101026.63;5112833;28;20471;-68
2023/07/26 03:04:14;;;;;;;6.63;6.03;;;;;;;14.09;81.65;101001.75;5111315;28;20471;-68
2023/07/26 03:06:40;;;;;;;6.53;5.88;;;;;;;14.34;81.86;101023.97;5074046;28;20050;-68
2023/07/26 03:09:06;;;;;;;8.20;7.18;;;;;;;14.28;81.89;101015.41;5104942;28;20043;-69
2023/07/26 03:11:31;;;;;;;7.97;7.18;;;;;;;14.24;82.95;101011.28;5110905;28;20023;-69
2023/07/26 03:13:57;;;;;;;8.07;7.38;;;;;;;14.17;85.61;101020.72;5110529;28;20121;-68
2023/07/26 03:16:22;;;;;;;7.80;7.30;;;;;;;14.17;85.08;101004.69;5112089;28;20031;-68
2023/07/26 03:18:48;;;;;;;7.82;7.00;;;;;;;14.14;85.53;101002.22;5112443;28;20105;-68
2023/07/26 03:21:13;;;;;;;8.65;7.72;;;;;;;14.18;84.00;101003.72;5111220;28;20111;-68
2023/07/26 03:23:39;;;;;;;7.88;7.28;;;;;;;14.14;87.59;100998.72;5110987;28;20043;-68
2023/07/26 03:26:04;;;;;;;7.72;7.13;;;;;;;14.28;86.55;101009.22;5093404;28;20024;-68
2023/07/26 03:28:30;;;;;;;9.50;7.47;;;;;;;14.24;87.13;101013.97;5111048;28;20478;-69
2023/07/26 03:30:55;;;;;;;7.90;6.65;;;;;;;14.23;86.64;101016.75;5092691;28;20031;-68
2023/07/26 03:33:21;;;;;;;7.78;7.18;;;;;;;14.18;86.54;101019.78;5094240;28;20046;-68
2023/07/26 03:35:47;;;;;;;22.02;7.03;;;;;;;13.98;87.22;101026.63;5110229;28;20032;-68
2023/07/26 03:38:15;;;;;;;7.85;7.05;;;;;;;14.06;87.69;101016.22;5110904;28;20030;-68
2023/07/26 03:40:40;;;;;;;8.00;7.40;;;;;;;13.89;86.86;101023.78;5111258;28;20042;-68
2023/07/26 03:43:11;;;;;;;7.43;6.72;;;;;;;13.89;88.35;101013.94;5092893;28;20020;-68
2023/07/26 03:45:37;;;;;;;6.63;6.13;;;;;;;13.80;88.75;101028.84;5111647;28;20818;-68
2023/07/26 03:48:05;;;;;;;6.15;5.65;;;;;;;13.79;88.15;101023.59;5109484;28;20030;-68
2023/07/26 03:50:32;;;;;;;6.80;6.20;;;;;;;13.71;87.90;101020.66;5110823;28;20038;-69
2023/07/26 03:52:57;;;;;;;10.60;6.22;;;;;;;13.76;88.32;101019.31;5110000;28;20028;-68
2023/07/26 03:55:23;;;;;;;7.05;6.45;;;;;;;13.76;87.43;101016.66;5110881;28;20039;-68
2023/07/26 03:57:49;;;;;;;7.05;6.28;;;;;;;13.67;89.15;101014.66;5111653;28;20114;-68
2023/07/26 04:00:14;;;;;;;8.05;6.28;;;;;;;13.59;88.53;101012.56;5092851;28;20040;-69
2023/07/26 04:02:40;;;;;;;8.02;6.80;;;;;;;13.62;88.35;101024.84;5111882;28;20023;-68
2023/07/26 04:05:06;;;;;;;6.57;5.97;;;;;;;13.48;88.48;101016.97;5093353;28;20491;-68
2023/07/26 04:07:32;;;;;;;7.63;6.93;;;;;;;13.50;89.55;101015.91;5111252;28;20427;-68
2023/07/26 04:10:00;;;;;;;7.38;6.70;;;;;;;13.62;89.35;101028.38;5111031;28;20027;-68
2023/07/26 04:12:26;;;;;;;7.15;6.65;;;;;;;13.59;88.51;101007.22;5094037;28;20020;-68
2023/07/26 04:14:51;;;;;;;7.78;6.97;;;;;;;13.54;89.56;101017.38;5093158;28;20671;-68
2023/07/26 04:17:17;;;;;;;7.57;6.93;;;;;;;13.40;90.48;101012.19;5091726;28;20255;-69
2023/07/26 04:19:43;;;;;;;9.35;7.35;;;;;;;13.38;89.86;101006.09;5109975;28;20020;-69
2023/07/26 04:22:08;;;;;;;8.02;7.43;;;;;;;13.46;90.73;101016.22;5091946;28;20024;-69
2023/07/26 04:24:34;;;;;;;7.88;7.10;;;;;;;13.37;90.53;101018.59;5089690;28;20046;-69
2023/07/26 04:26:59;;;;;;;8.68;7.75;;;;;;;13.23;91.16;101018.69;5103559;28;20051;-68
2023/07/26 04:29:25;;;;;;;9.18;8.48;;;;;;;13.34;92.02;101018.81;5090408;28;20070;-69
2023/07/26 04:31:50;;;;;;;8.75;8.05;;;;;;;13.41;90.91;101024.56;5110361;28;20028;-69
2023/07/26 04:34:15;;;;;;;9.45;8.50;;;;;;;13.37;90.35;101013.25;5109735;28;20062;-69
2023/07/26 04:36:41;;;;;;;9.45;8.65;;;;;;;13.38;90.59;101016.78;5107430;28;20031;-69
2023/07/26 04:39:07;;;;;;;10.00;9.07;;;;;;;13.28;91.02;101016.59;5090670;28;20312;-68
2023/07/26 04:41:32;;;;;;;5.95;5.35;;;;;;;13.55;90.20;101019.06;5093734;28;20118;-69
2023/07/26 04:44:00;;;;;;;9.50;8.73;;;;;;;13.37;90.52;101018.59;5090632;28;20424;-68
2023/07/26 04:46:25;;;;;;;10.35;9.35;;;;;;;13.38;92.54;101014.97;5092479;28;20500;-69
2023/07/26 04:48:51;;;;;;;10.32;9.30;;;;;;;13.34;90.98;101017.97;5108955;28;20032;-69
2023/07/26 04:51:16;;;;;;;12.13;9.32;;;;;;;13.43;90.94;101016.44;5110672;28;20057;-68
2023/07/26 04:53:41;;;;;;;11.00;9.98;;;;;;;13.39;92.33;101021.16;5108974;28;20099;-68
2023/07/26 04:56:07;;;;;;;11.95;10.65;;;;;;;13.47;92.14;101017.94;5094188;28;20035;-69
2023/07/26 04:58:32;;;;;;;11.07;10.10;;;;;;;13.44;91.54;101008.31;5091254;28;20488;-68
2023/07/26 05:01:00;;;;;;;16.33;10.63;;;;;;;13.43;92.40;101014.63;5091806;28;20019;-69
2023/07/26 05:03:26;;;;;;;10.98;9.85;;;;;;;13.58;93.07;101015.31;5092742;28;20023;-68
2023/07/26 05:05:51;;;;;;;10.95;9.40;;;;;;;13.61;90.53;101017.78;5095772;28;20015;-68
2023/07/26 05:08:21;;;;;;;10.75;9.70;;;;;;;13.61;92.39;101026.63;5114650;28;20047;-69
2023/07/26 05:10:51;;;;;;;10.32;9.25;;;;;;;13.66;91.69;101020.13;5114878;28;20036;-69
2023/07/26 05:13:19;;;;;;;10.38;9.27;;;;;;;13.80;92.54;101011.94;5096686;28;20027;-68
2023/07/26 05:15:47;;;;;;;10.65;9.55;;;;;;;13.75;91.54;101014.09;5096821;28;20016;-69
2023/07/26 05:18:14;;;;;;;11.30;10.30;;;;;;;13.83;92.45;101019.75;5114601;28;20382;-69
2023/07/26 05:20:40;;;;;;;14.75;10.20;;;;;;;13.89;91.12;101015.75;5114571;28;20027;-68
2023/07/26 05:23:06;;;;;;;9.10;6.00;;;;;;;14.12;90.58;101019.38;5095432;28;20072;-68
2023/07/26 05:25:31;;;;;;;12.52;9.20;;;;;;;14.11;90.38;101025.69;5096506;28;20811;-69
2023/07/26 05:27:57;;;;;;;10.63;9.45;;;;;;;14.08;89.92;101021.44;5096432;28;20023;-69
2023/07/26 05:30:25;;;;;;;11.00;10.10;;;;;;;14.03;91.71;101032.47;5095983;28;20024;-68
2023/07/26 05:32:50;;;;;;;12.13;10.15;;;;;;;14.13;90.79;101026.44;5113986;28;20110;-68
2023/07/26 05:35:16;;;;;;;10.93;9.40;;;;;;;14.20;90.13;101025.84;5096449;28;20701;-69
2023/07/26 05:37:41;;;;;;;10.20;9.20;;;;;;;14.35;90.37;101025.66;5114361;28;20024;-69
2023/07/26 05:40:07;;;;;;;11.57;10.05;;;;;;;14.41;90.55;101034.09;5085042;28;20395;-68
2023/07/26 05:42:34;;;;;;;9.57;8.68;;;;;;;14.40;90.60;101021.66;5094152;28;20043;-69
2023/07/26 05:45:02;;;;;;;10.77;9.63;;;;;;;14.51;90.85;101023.53;5099534;28;20055;-69
2023/07/26 05:47:30;;;;;;;10.15;9.07;;;;;;;14.73;90.42;101036.13;5113102;28;20489;-69
2023/07/26 05:49:58;;;;;;;13.57;9.32;;;;;;;14.68;89.37;101030.31;5095006;28;20470;-68
2023/07/26 05:52:23;;;;;;;11.30;10.07;;;;;;;14.76;89.85;101023.38;5114374;28;20046;-68
2023/07/26 05:54:49;;;;;;;12.90;9.75;;;;;;;14.76;89.31;101035.88;5092241;28;20375;-69
2023/07/26 05:57:14;;;;;;;12.30;10.20;;;;;;;14.79;89.91;101032.97;5114313;28;20020;-68
2023/07/26 05:59:42;;;;;;;12.18;10.95;;;;;;;14.68;89.85;101031.16;5113651;28;20023;-68
2023/07/26 06:02:07;;;;;;;15.57;11.30;;;;;;;14.76;89.02;101033.22;5113632;28;20035;-69
2023/07/26 06:04:33;;;;;;;13.07;10.50;;;;;;;14.73;90.65;101030.78;5111262;28;20027;-69
2023/07/26 06:06:59;;;;;;;15.82;11.57;;;;;;;14.81;90.75;101038.22;5110507;28;20050;-69
2023/07/26 06:09:25;;;;;;;12.73;11.40;;;;;;;14.92;90.78;101040.91;5111334;28;20031;-69
2023/07/26 06:11:51;;;;;;;12.95;11.60;;;;;;;15.03;90.84;101040.94;5094389;28;20077;-68
2023/07/26 06:14:16;;;;;;;12.70;11.35;;;;;;;15.01;90.52;101028.63;5094328;28;20436;-68
2023/07/26 06:16:41;;;;;;;15.70;12.38;;;;;;;15.16;90.79;101054.22;5112441;28;20110;-68
2023/07/26 06:19:07;;;;;;;12.95;11.52;;;;;;;15.11;89.83;101057.22;5094093;28;20127;-68
2023/07/26 06:21:33;;;;;;;13.57;12.23;;;;;;;15.09;90.69;101058.31;5108674;28;20058;-68
2023/07/26 06:23:59;;;;;;;14.13;12.63;;;;;;;15.15;91.44;101065.91;5092843;28;20089;-68
2023/07/26 06:26:24;;;;;;;14.23;12.38;;;;;;;15.16;90.73;101063.09;5112907;28;20036;-68
2023/07/26 06:28:50;;;;;;;15.93;12.93;;;;;;;15.21;91.12;101066.28;5110616;28;20023;-68
2023/07/26 06:31:16;;;;;;;14.52;12.45;;;;;;;15.18;91.38;101073.69;5092479;28;20420;-69
2023/07/26 06:33:42;;;;;;;14.93;13.18;;;;;;;15.29;92.74;101079.03;5111318;28;20058;-68
2023/07/26 06:36:07;;;;;;;15.63;12.68;;;;;;;15.27;91.62;101089.06;5094013;28;20751;-68
2023/07/26 06:38:33;;;;;;;14.82;12.98;;;;;;;15.20;91.33;101091.34;5112912;28;20023;-68
2023/07/26 06:40:58;;;;;;;15.13;13.52;;;;;;;15.19;92.41;101092.31;5113064;28;20471;-68
2023/07/26 06:43:24;;;;;;;17.27;13.13;;;;;;;15.18;92.62;101087.09;5112149;28;20513;-68
2023/07/26 06:45:52;;;;;;;17.58;14.10;;;;;;;15.17;94.42;101091.56;5113069;28;20043;-68
2023/07/26 06:48:18;;;;;;;19.20;13.73;;;;;;;15.18;94.39;101090.63;5111895;28;20020;-68
2023/07/26 06:50:43;;;;;;;15.63;13.70;;;;;;;15.09;94.58;101083.31;5076055;28;20032;-69
2023/07/26 06:53:09;;;;;;;15.68;13.68;;;;;;;15.08;94.68;101094.97;5112085;28;20270;-69
2023/07/26 06:55:39;;;;;;;20.45;14.80;;;;;;;15.09;96.25;101099.38;5111231;28;20385;-68
2023/07/26 06:58:05;;;;;;;18.40;14.20;;;;;;;15.07;96.09;101100.47;5112830;28;20501;-68
2023/07/26 07:00:31;;;;;;;18.35;14.27;;;;;;;14.97;95.75;101100.31;5111798;28;20478;-68
2023/07/26 07:02:57;;;;;;;21.50;14.98;;;;;;;14.98;96.59;101100.22;5110940;28;20023;-68
2023/07/26 07:05:23;;;;;;;15.88;13.48;;;;;;;15.11;98.01;101110.81;5111398;28;20031;-68
2023/07/26 07:07:48;;;;;;;17.38;14.95;;;;;;;15.05;97.85;101087.19;5120328;27;20023;-68
2023/07/26 07:10:14;;;;;;;17.73;15.32;;;;;;;15.16;99.32;101097.06;5117670;27;20072;-68
2023/07/26 07:12:39;;;;;;;19.27;15.63;;;;;;;15.02;100.00;101095.47;5110259;28;20044;-68
2023/07/26 07:15:08;;;;;;;18.40;14.93;;;;;;;15.06;100.00;101107.66;5093044;28;20062;-68
2023/07/26 07:17:34;;;;;;;15.85;14.05;;;;;;;15.11;100.00;101109.97;5092110;28;20038;-68
2023/07/26 07:20:00;;;;;;;17.70;14.23;;;;;;;15.16;99.79;101126.53;5107291;28;20114;-68
2023/07/26 07:22:25;;;;;;;18.33;14.90;;;;;;;15.14;100.00;101126.66;5109867;28;20046;-68
2023/07/26 07:24:52;;;;;;;19.75;13.60;;;;;;;15.15;98.65;101133.72;5093885;28;20559;-68
2023/07/26 07:27:18;;;;;;;23.20;14.68;;;;;;;15.18;100.00;101128.13;5107046;28;20406;-68
2023/07/26 07:29:44;;;;;;;15.27;13.77;;;;;;;15.24;100.00;101142.88;5089062;28;20020;-68
2023/07/26 07:32:09;;;;;;;19.63;14.75;;;;;;;15.33;100.00;101136.81;5105952;28;20084;-68
2023/07/26 07:34:35;;;;;;;16.75;13.55;;;;;;;15.49;100.00;101149.00;5111549;28;20102;-68
2023/07/26 07:37:00;;;;;;;18.98;14.10;;;;;;;15.43;100.00;101151.16;5089114;28;20368;-68
2023/07/26 07:39:28;;;;;;;15.18;13.07;;;;;;;15.42;99.71;101146.78;5090723;28;20028;-68
2023/07/26 07:41:53;;;;;;;18.52;13.00;;;;;;;15.37;98.99;101151.66;5107216;28;20027;-68
2023/07/26 07:44:21;;;;;;;19.23;13.15;;;;;;;15.32;97.80;101151.16;5110239;28;20156;-68
2023/07/26 07:46:46;;;;;;;16.52;13.30;;;;;;;15.36;99.04;101158.00;5110251;28;20076;-68
2023/07/26 07:49:12;;;;;;;17.15;14.20;;;;;;;15.64;99.14;101145.94;5091262;28;20027;-68
2023/07/26 07:51:38;;;;;;;17.25;13.43;;;;;;;15.91;98.17;101144.72;5109772;28;20093;-68
2023/07/26 07:54:04;;;;;;;17.73;13.73;;;;;;;16.06;97.94;101137.25;5090634;28;20031;-68
2023/07/26 07:56:29;;;;;;;17.33;12.98;;;;;;;16.00;95.39;101121.66;5109560;28;20059;-69
2023/07/26 07:58:57;;;;;;;15.80;13.02;;;;;;;16.23;95.21;101125.16;5091712;28;20020;-68
2023/07/26 08:01:24;;;;;;;19.88;13.27;;;;;;;16.48;97.28;101132.03;5108902;28;20031;-68
2023/07/26 08:03:50;;;;;;;14.18;11.43;;;;;;;16.57;91.42;101126.75;5111306;28;20027;-68
2023/07/26 08:06:16;;;;;;;14.18;12.38;;;;;;;16.75;94.13;101136.91;5111384;28;20026;-68
2023/07/26 08:08:45;;;;;;;14.18;12.07;;;;;;;16.84;91.30;101133.47;5092691;28;20034;-68
2023/07/26 08:11:10;;;;;;;16.92;12.50;;;;;;;17.16;92.43;101135.25;5106665;28;20371;-68
2023/07/26 08:13:36;;;;;;;16.60;12.43;;;;;;;17.32;90.24;101132.06;5091324;28;20027;-68
2023/07/26 08:16:02;;;;;;;13.75;12.10;;;;;;;17.47;88.89;101136.97;5111057;28;20032;-68
2023/07/26 08:18:27;;;;;;;12.93;10.70;;;;;;;17.59;88.92;101132.38;5111631;28;20022;-68
2023/07/26 08:20:53;;;;;;;11.80;10.60;;;;;;;17.85;88.37;101127.41;5090924;28;20462;-68
2023/07/26 08:23:18;;;;;;;13.57;11.90;;;;;;;18.13;88.03;101132.97;5092957;28;20020;-68
2023/07/26 08:25:44;;;;;;;12.35;10.63;;;;;;;18.25;83.71;101136.41;5110672;28;20051;-68
2023/07/26 08:28:09;;;;;;;14.32;10.45;;;;;;;18.20;82.20;101122.50;5111671;28;20485;-68
2023/07/26 08:30:35;;;;;;;16.30;11.32;;;;;;;18.37;85.54;101135.28;5111239;28;20032;-68
2023/07/26 08:33:00;;;;;;;12.70;9.80;;;;;;;18.25;80.29;101133.69;5111838;28;20031;-68
2023/07/26 08:35:26;;;;;;;14.32;9.80;;;;;;;17.99;81.82;101130.66;5111606;28;20382;-68
2023/07/26 08:37:52;;;;;;;13.80;10.15;;;;;;;18.04;82.86;101129.28;5093484;28;20028;-68
2023/07/26 08:40:18;;;;;;;11.95;9.98;;;;;;;18.36;79.72;101136.28;5112744;28;20073;-68
2023/07/26 08:42:44;;;;;;;14.57;9.90;;;;;;;18.38;78.31;101137.84;5116012;28;20032;-68
2023/07/26 08:45:10;;;;;;;12.43;9.68;;;;;;;18.42;78.03;101133.00;5115298;28;20528;-68
2023/07/26 08:47:36;;;;;;;13.02;9.30;;;;;;;18.55;76.17;101138.13;5114419;28;20028;-68
2023/07/26 08:50:06;;;;;;;12.23;9.70;;;;;;;18.79;78.75;101137.72;5115040;28;20027;-68
2023/07/26 08:52:32;;;;;;;12.10;10.10;;;;;;;18.85;77.44;101139.81;5115599;28;20031;-68
2023/07/26 08:54:59;;;;;;;11.82;9.85;;;;;;;18.80;78.04;101140.28;5096342;28;20024;-68
2023/07/26 08:57:25;;;;;;;10.73;8.98;;;;;;;18.83;77.26;101137.28;5115412;28;20035;-68
2023/07/26 08:59:51;;;;;;;10.43;8.80;;;;;;;18.91;73.11;101136.56;5105114;28;20105;-68
2023/07/26 09:02:18;;;;;;;10.30;9.20;;;;;;;19.02;76.08;101131.00;5114820;28;20031;-69
2023/07/26 09:04:45;;;;;;;9.13;7.95;;;;;;;19.19;74.27;101126.72;5114768;28;20481;-68
2023/07/26 09:07:11;;;;;;;10.63;7.47;;;;;;;19.46;70.34;101131.31;5114954;28;20402;-68
2023/07/26 09:09:38;;;;;;;9.45;7.40;;;;;;;19.43;69.06;101131.63;5114428;28;20628;-68
2023/07/26 09:12:04;;;;;;;8.88;7.20;;;;;;;19.59;69.25;101127.44;5115045;28;20100;-68
2023/07/26 09:14:31;;;;;;;8.88;7.03;;;;;;;19.46;66.41;101128.63;5114678;28;20474;-68
2023/07/26 09:16:57;;;;;;;9.65;7.10;;;;;;;19.37;66.72;101125.97;5114870;28;20429;-68
2023/07/26 09:19:33;;;;;;;9.95;7.97;;;;;;;19.14;66.66;101129.00;5114396;28;20103;-68
2023/07/26 09:22:01;;;;;;;9.15;7.10;;;;;;;18.96;68.91;101114.56;5096507;28;20478;-69
2023/07/26 09:24:30;;;;;;;8.52;7.47;;;;;;;18.83;70.55;101123.81;5113408;28;20151;-68
2023/07/26 09:27:03;;;;;;;7.65;6.93;;;;;;;19.27;66.95;101129.53;5079611;28;20031;-68
2023/07/26 09:29:28;;;;;;;7.05;6.05;;;;;;;19.39;63.91;101132.91;5096188;28;20027;-68
2023/07/26 09:31:54;;;;;;;7.70;6.13;;;;;;;19.36;64.01;101133.22;5096499;28;20024;-68
2023/07/26 09:34:19;;;;;;;7.45;6.28;;;;;;;19.39;64.86;101134.78;5095855;28;20085;-68
2023/07/26 09:36:47;;;;;;;7.38;6.10;;;;;;;19.33;65.16;101130.81;5114655;28;20031;-68
2023/07/26 09:39:14;;;;;;;7.63;5.22;;;;;;;19.13;61.69;101138.09;5095658;28;20032;-68
2023/07/26 09:41:42;;;;;;;4.95;4.45;;;;;;;18.86;58.64;101136.16;5096265;28;20023;-69
2023/07/26 09:44:16;;;;;;;4.82;4.00;;;;;;;18.97;58.60;101140.53;5095418;28;20088;-68
2023/07/26 09:46:50;;;;;;;5.07;4.60;;;;;;;19.28;58.00;101138.47;5093860;28;20031;-68
2023/07/26 09:49:16;;;;;;;4.68;3.80;;;;;;;19.55;55.16;101145.78;5090854;28;20027;-68
2023/07/26 09:51:42;;;;;;;6.70;4.00;;;;;;;19.78;54.24;101146.28;5114322;28;20026;-68
2023/07/26 09:54:10;;;;;;;5.10;4.60;;;;;;;19.89;54.35;101138.00;5113476;28;20405;-69
2023/07/26 09:56:35;;;;;;;5.47;4.10;;;;;;;19.81;54.04;101139.72;5095658;28;20051;-68
2023/07/26 09:59:01;;;;;;;4.60;4.20;;;;;;;19.79;55.90;101133.63;5095894;28;20059;-68
2023/07/26 10:01:30;;;;;;;4.05;3.65;;;;;;;19.87;55.18;101139.13;5096011;28;20030;-68
2023/07/26 10:04:03;;;;;;;5.30;3.55;;;;;;;19.96;55.84;101140.94;5113781;28;20027;-68
2023/07/26 10:06:32;;;;;;;5.50;4.72;;;;;;;19.85;57.87;101135.72;5113748;28;20062;-68
2023/07/26 10:08:58;;;;;;;;;;;;;;;20.06;58.40;101133.63;5113790;28;20038;-69
2023/07/26 10:11:25;;;;;;;6.38;5.13;;;;;;;19.37;58.33;101134.91;5113993;28;19907;-68
2023/07/26 10:13:52;;;;;;;5.68;4.45;;;;;;;19.14;56.62;101130.84;5113360;28;20374;-69
2023/07/26 10:16:18;;;;;;;9.25;5.50;;;;;;;19.28;58.34;101125.84;5095602;28;20470;-69
2023/07/26 10:18:47;;;;;;;7.07;5.07;;;;;;;19.23;58.40;101124.56;5095168;28;20042;-68
2023/07/26 10:21:14;;;;;;;6.18;5.30;;;;;;;19.36;60.71;101124.28;5113565;28;20109;-68
2023/07/26 10:23:43;;;;;;;7.75;6.05;;;;;;;19.57;60.28;101115.97;5094590;28;20489;-69
2023/07/26 10:26:09;;;;;;;7.30;6.40;;;;;;;19.98;60.60;101120.03;5113423;28;20505;-68
2023/07/26 10:28:37;;;;;;;8.95;6.25;;;;;;;20.30;61.17;101118.69;5095427;28;20509;-69
2023/07/26 10:31:03;;;;;;;6.50;5.85;;;;;;;20.34;58.46;101125.47;5095163;28;20030;-69
2023/07/26 10:33:32;;;;;;;7.38;5.70;;;;;;;20.49;58.08;101121.22;5113357;28;20027;-68
2023/07/26 10:36:03;;;;;;;6.65;5.88;;;;;;;20.54;58.78;101123.50;5112825;28;20027;-69
2023/07/26 10:38:28;;;;;;;7.22;6.00;;;;;;;20.61;58.22;101121.88;5094737;28;20069;-69
2023/07/26 10:40:54;;;;;;;8.15;5.55;;;;;;;20.52;59.77;101112.84;5113535;28;20051;-69
2023/07/26 10:43:19;;;;;;;6.30;4.88;;;;;;;20.49;58.36;101113.13;5094631;28;20042;-68
2023/07/26 10:45:46;;;;;;;6.50;4.70;;;;;;;20.48;57.79;101118.69;5113465;28;20035;-68
2023/07/26 10:48:12;;;;;;;6.65;5.75;;;;;;;20.29;57.39;101117.81;5112859;28;20016;-69
2023/07/26 10:50:38;;;;;;;6.75;5.57;;;;;;;20.23;59.20;101106.78;5113113;28;20024;-69
2023/07/26 10:53:38;;;;;;;6.55;5.40;;;;;;;20.71;60.26;101117.25;5112834;28;20042;-68
2023/07/26 10:56:22;;;;;;;8.85;6.45;;;;;;;20.76;58.26;101109.50;5062682;28;20042;-68
2023/07/26 10:59:17;;;;;;;7.03;6.30;;;;;;;21.19;59.21;101112.34;5113126;28;20023;-68
2023/07/26 11:01:46;;;;;;;7.07;6.03;;;;;;;21.47;54.22;101107.63;5091944;28;20063;-68
2023/07/26 11:04:13;;;;;;;8.43;6.00;;;;;;;21.56;53.55;101103.97;5092582;28;20020;-68
2023/07/26 11:06:57;;;;;;;6.78;5.43;;;;;;;21.95;55.00;101114.25;5112519;28;20023;-68
2023/07/26 11:09:24;;;;;;;6.63;5.93;;;;;;;22.10;51.91;101117.19;5112304;28;20031;-68
2023/07/26 11:12:01;;;;;;;7.10;6.40;;;;;;;22.11;51.71;101121.56;5094599;28;20115;-68
2023/07/26 11:14:28;;;;;;;6.90;5.70;;;;;;;22.34;52.26;101114.53;5112614;28;20023;-68
2023/07/26 11:16:54;;;;;;;8.77;6.18;;;;;;;22.50;51.56;101116.44;5111908;28;20535;-68